sensor_id;sensor_type;location;lat;lon;timestamp;pressure;altitude;pressure_sealevel;temperature;humidity
73870;BME280;64924;42.140;24.762;2023-06-24T00:02:00;99607.56;;;25.40;50.38
73870;BME280;64924;42.140;24.762;2023-06-24T00:04:26;99519.03;;;24.65;50.86
73870;BME280;64924;42.140;24.762;2023-06-24T00:06:52;99615.00;;;25.21;51.27
73870;BME280;64924;42.140;24.762;2023-06-24T00:09:18;99581.00;;;25.00;51.15
73870;BME280;64924;42.140;24.762;2023-06-24T00:11:43;99573.78;;;24.99;51.49
73870;BME280;64924;42.140;24.762;2023-06-24T00:14:09;99521.47;;;24.72;51.37
73870;BME280;64924;42.140;24.762;2023-06-24T00:16:36;99536.75;;;24.75;51.26
73870;BME280;64924;42.140;24.762;2023-06-24T00:19:02;99462.09;;;24.34;50.39
73870;BME280;64924;42.140;24.762;2023-06-24T00:21:28;99542.88;;;24.72;50.29
73870;BME280;64924;42.140;24.762;2023-06-24T00:23:57;99536.25;;;24.67;50.31
73870;BME280;64924;42.140;24.762;2023-06-24T00:26:23;99565.13;;;24.72;50.44
73870;BME280;64924;42.140;24.762;2023-06-24T00:28:49;99558.56;;;24.57;51.19
73870;BME280;64924;42.140;24.762;2023-06-24T00:31:14;99460.19;;;23.90;51.59
73870;BME280;64924;42.140;24.762;2023-06-24T00:33:40;99594.78;;;24.81;50.94
73870;BME280;64924;42.140;24.762;2023-06-24T00:36:05;99602.91;;;24.73;51.57
73870;BME280;64924;42.140;24.762;2023-06-24T00:38:33;99585.06;;;24.79;51.30
73870;BME280;64924;42.140;24.762;2023-06-24T00:40:59;99547.63;;;24.71;50.77
73870;BME280;64924;42.140;24.762;2023-06-24T00:43:24;99502.44;;;24.21;50.70
73870;BME280;64924;42.140;24.762;2023-06-24T00:45:50;99549.69;;;24.55;50.94
73870;BME280;64924;42.140;24.762;2023-06-24T00:48:18;99489.97;;;24.19;50.98
73870;BME280;64924;42.140;24.762;2023-06-24T00:50:44;99531.34;;;24.54;50.33
73870;BME280;64924;42.140;24.762;2023-06-24T00:53:11;99538.03;;;24.53;50.16
73870;BME280;64924;42.140;24.762;2023-06-24T00:55:37;99537.56;;;24.46;49.93
73870;BME280;64924;42.140;24.762;2023-06-24T00:58:03;99534.25;;;24.44;49.71
73870;BME280;64924;42.140;24.762;2023-06-24T01:00:29;99546.97;;;24.50;49.40
73870;BME280;64924;42.140;24.762;2023-06-24T01:02:58;99566.81;;;24.67;49.62
73870;BME280;64924;42.140;24.762;2023-06-24T01:05:28;99468.88;;;24.18;49.50
73870;BME280;64924;42.140;24.762;2023-06-24T01:08:38;99375.84;;;23.47;48.88
73870;BME280;64924;42.140;24.762;2023-06-24T01:11:04;99493.44;;;24.00;48.84
73870;BME280;64924;42.140;24.762;2023-06-24T01:13:45;99569.72;;;24.52;48.23
73870;BME280;64924;42.140;24.762;2023-06-24T01:16:31;99460.22;;;23.85;47.85
73870;BME280;64924;42.140;24.762;2023-06-24T01:19:23;99580.53;;;24.54;47.04
73870;BME280;64924;42.140;24.762;2023-06-24T01:22:17;99575.69;;;24.36;47.41
73870;BME280;64924;42.140;24.762;2023-06-24T01:30:35;99566.00;;;24.23;47.13
73870;BME280;64924;42.140;24.762;2023-06-24T01:33:09;99562.22;;;24.09;47.11
73870;BME280;64924;42.140;24.762;2023-06-24T01:35:38;99538.53;;;23.77;47.41
73870;BME280;64924;42.140;24.762;2023-06-24T01:38:20;99534.13;;;23.71;47.25
73870;BME280;64924;42.140;24.762;2023-06-24T01:40:47;99508.13;;;23.47;47.53
73870;BME280;64924;42.140;24.762;2023-06-24T01:43:15;99495.22;;;23.22;47.41
73870;BME280;64924;42.140;24.762;2023-06-24T01:45:43;99538.63;;;23.47;47.75
73870;BME280;64924;42.140;24.762;2023-06-24T01:48:16;99551.25;;;23.83;47.48
73870;BME280;64924;42.140;24.762;2023-06-24T01:50:50;99591.69;;;23.99;47.43
73870;BME280;64924;42.140;24.762;2023-06-24T01:53:20;99550.72;;;23.81;47.26
73870;BME280;64924;42.140;24.762;2023-06-24T01:55:47;99537.94;;;23.80;47.40
73870;BME280;64924;42.140;24.762;2023-06-24T01:58:15;99544.63;;;23.79;47.24
73870;BME280;64924;42.140;24.762;2023-06-24T02:00:43;99496.03;;;23.27;48.20
73870;BME280;64924;42.140;24.762;2023-06-24T02:03:09;99581.31;;;23.66;48.02
73870;BME280;64924;42.140;24.762;2023-06-24T02:05:36;99544.19;;;23.42;48.04
73870;BME280;64924;42.140;24.762;2023-06-24T02:08:07;99492.19;;;23.13;48.04
73870;BME280;64924;42.140;24.762;2023-06-24T02:10:35;99571.06;;;23.61;47.93
73870;BME280;64924;42.140;24.762;2023-06-24T02:13:02;99474.19;;;23.06;47.76
73870;BME280;64924;42.140;24.762;2023-06-24T02:15:29;99544.78;;;23.39;48.01
73870;BME280;64924;42.140;24.762;2023-06-24T02:17:57;99604.59;;;23.75;48.04
73870;BME280;64924;42.140;24.762;2023-06-24T02:20:23;99507.13;;;23.22;47.89
73870;BME280;64924;42.140;24.762;2023-06-24T02:22:53;99591.94;;;23.39;48.08
73870;BME280;64924;42.140;24.762;2023-06-24T02:25:19;99620.78;;;23.38;48.53
73870;BME280;64924;42.140;24.762;2023-06-24T02:27:45;99629.13;;;23.22;48.94
73870;BME280;64924;42.140;24.762;2023-06-24T02:30:12;99559.84;;;22.77;49.20
73870;BME280;64924;42.140;24.762;2023-06-24T02:32:38;99599.78;;;23.01;48.91
73870;BME280;64924;42.140;24.762;2023-06-24T02:35:04;99569.84;;;22.83;49.09
73870;BME280;64924;42.140;24.762;2023-06-24T02:37:30;99556.00;;;22.57;48.87
73870;BME280;64924;42.140;24.762;2023-06-24T02:39:56;99490.09;;;22.24;49.06
73870;BME280;64924;42.140;24.762;2023-06-24T02:42:22;99610.81;;;23.11;48.94
73870;BME280;64924;42.140;24.762;2023-06-24T02:44:48;99623.56;;;23.07;48.80
73870;BME280;64924;42.140;24.762;2023-06-24T02:47:14;99587.03;;;22.90;48.81
73870;BME280;64924;42.140;24.762;2023-06-24T02:49:42;99636.88;;;23.20;48.71
73870;BME280;64924;42.140;24.762;2023-06-24T02:52:12;99617.19;;;23.22;48.59
73870;BME280;64924;42.140;24.762;2023-06-24T02:54:38;99645.97;;;23.41;48.60
73870;BME280;64924;42.140;24.762;2023-06-24T02:57:06;99552.38;;;22.77;48.56
73870;BME280;64924;42.140;24.762;2023-06-24T02:59:32;99612.69;;;23.41;48.14
73870;BME280;64924;42.140;24.762;2023-06-24T03:01:58;99620.19;;;23.41;48.11
73870;BME280;64924;42.140;24.762;2023-06-24T03:04:25;99630.72;;;23.64;47.64
73870;BME280;64924;42.140;24.762;2023-06-24T03:06:51;99619.59;;;23.69;47.56
73870;BME280;64924;42.140;24.762;2023-06-24T03:09:18;99642.50;;;24.00;46.71
73870;BME280;64924;42.140;24.762;2023-06-24T03:11:44;99646.25;;;24.24;46.24
73870;BME280;64924;42.140;24.762;2023-06-24T03:14:10;99616.78;;;24.33;45.47
73870;BME280;64924;42.140;24.762;2023-06-24T03:16:37;99641.72;;;24.83;45.07
73870;BME280;64924;42.140;24.762;2023-06-24T03:19:04;99577.44;;;24.60;44.37
73870;BME280;64924;42.140;24.762;2023-06-24T03:21:29;99549.50;;;24.47;44.22
73870;BME280;64924;42.140;24.762;2023-06-24T03:23:55;99604.72;;;24.87;44.21
73870;BME280;64924;42.140;24.762;2023-06-24T03:26:22;99606.22;;;25.09;43.18
73870;BME280;64924;42.140;24.762;2023-06-24T03:28:47;99567.81;;;24.82;43.08
73870;BME280;64924;42.140;24.762;2023-06-24T03:31:14;99618.78;;;25.30;42.73
73870;BME280;64924;42.140;24.762;2023-06-24T03:33:41;99652.00;;;25.74;42.32
73870;BME280;64924;42.140;24.762;2023-06-24T03:36:10;99621.44;;;25.69;41.83
73870;BME280;64924;42.140;24.762;2023-06-24T03:38:36;99589.34;;;25.53;41.69
73870;BME280;64924;42.140;24.762;2023-06-24T03:41:02;99647.59;;;26.16;41.05
73870;BME280;64924;42.140;24.762;2023-06-24T03:43:27;99509.53;;;25.48;40.92
73870;BME280;64924;42.140;24.762;2023-06-24T03:45:53;99608.63;;;26.72;39.85
73870;BME280;64924;42.140;24.762;2023-06-24T03:48:18;99611.59;;;26.76;39.12
73870;BME280;64924;42.140;24.762;2023-06-24T03:50:44;99504.75;;;26.34;38.78
73870;BME280;64924;42.140;24.762;2023-06-24T03:53:09;99615.31;;;27.50;37.78
73870;BME280;64924;42.140;24.762;2023-06-24T03:55:35;99627.13;;;28.15;36.80
73870;BME280;64924;42.140;24.762;2023-06-24T03:58:00;99508.16;;;28.01;35.54
73870;BME280;64924;42.140;24.762;2023-06-24T04:00:26;99605.25;;;28.67;35.08
73870;BME280;64924;42.140;24.762;2023-06-24T04:02:51;99639.09;;;29.02;34.61
73870;BME280;64924;42.140;24.762;2023-06-24T04:05:18;99630.34;;;29.17;34.06
73870;BME280;64924;42.140;24.762;2023-06-24T04:07:45;99630.97;;;29.14;34.17
73870;BME280;64924;42.140;24.762;2023-06-24T04:10:12;99575.22;;;28.50;34.96
73870;BME280;64924;42.140;24.762;2023-06-24T04:12:38;99567.19;;;28.35;34.83
73870;BME280;64924;42.140;24.762;2023-06-24T04:15:05;99577.53;;;28.93;34.20
73870;BME280;64924;42.140;24.762;2023-06-24T04:17:30;99617.19;;;29.48;33.00
73870;BME280;64924;42.140;24.762;2023-06-24T04:19:56;99554.31;;;29.23;33.18
73870;BME280;64924;42.140;24.762;2023-06-24T04:22:24;99491.34;;;29.04;33.11
73870;BME280;64924;42.140;24.762;2023-06-24T04:24:50;99548.75;;;28.79;33.41
73870;BME280;64924;42.140;24.762;2023-06-24T04:27:16;99643.75;;;29.28;33.68
73870;BME280;64924;42.140;24.762;2023-06-24T04:29:41;99613.34;;;28.69;33.94
73870;BME280;64924;42.140;24.762;2023-06-24T04:32:07;99653.72;;;28.26;35.56
73870;BME280;64924;42.140;24.762;2023-06-24T04:34:33;99639.25;;;28.24;35.07
73870;BME280;64924;42.140;24.762;2023-06-24T04:36:58;99645.13;;;28.23;35.13
73870;BME280;64924;42.140;24.762;2023-06-24T04:39:24;99584.16;;;27.75;35.14
73870;BME280;64924;42.140;24.762;2023-06-24T04:41:49;99676.59;;;28.15;35.60
73870;BME280;64924;42.140;24.762;2023-06-24T04:44:15;99608.84;;;27.95;35.09
73870;BME280;64924;42.140;24.762;2023-06-24T04:46:40;99574.13;;;27.74;35.40
73870;BME280;64924;42.140;24.762;2023-06-24T04:49:06;99640.59;;;28.13;35.28
73870;BME280;64924;42.140;24.762;2023-06-24T04:51:32;99601.38;;;27.91;35.23
73870;BME280;64924;42.140;24.762;2023-06-24T04:53:58;99669.75;;;28.48;34.83
73870;BME280;64924;42.140;24.762;2023-06-24T04:56:23;99664.59;;;28.64;34.92
73870;BME280;64924;42.140;24.762;2023-06-24T04:58:50;99676.06;;;28.76;34.94
73870;BME280;64924;42.140;24.762;2023-06-24T05:01:17;99693.38;;;29.14;34.69
73870;BME280;64924;42.140;24.762;2023-06-24T05:03:42;99640.56;;;28.99;34.02
73870;BME280;64924;42.140;24.762;2023-06-24T05:06:08;99608.94;;;28.90;33.39
73870;BME280;64924;42.140;24.762;2023-06-24T05:08:33;99593.31;;;29.20;33.50
73870;BME280;64924;42.140;24.762;2023-06-24T05:10:59;99694.53;;;29.98;33.24
73870;BME280;64924;42.140;24.762;2023-06-24T05:13:27;99634.53;;;29.99;32.35
73870;BME280;64924;42.140;24.762;2023-06-24T05:15:53;99672.06;;;30.29;32.20
73870;BME280;64924;42.140;24.762;2023-06-24T05:18:20;99602.25;;;30.01;31.76
73870;BME280;64924;42.140;24.762;2023-06-24T05:20:48;99670.28;;;30.41;31.46
73870;BME280;64924;42.140;24.762;2023-06-24T05:23:14;99613.16;;;30.03;31.65
73870;BME280;64924;42.140;24.762;2023-06-24T05:25:39;99660.75;;;30.59;31.29
73870;BME280;64924;42.140;24.762;2023-06-24T05:28:06;99672.16;;;30.80;31.14
73870;BME280;64924;42.140;24.762;2023-06-24T05:30:31;99645.72;;;30.90;30.95
73870;BME280;64924;42.140;24.762;2023-06-24T05:32:57;99673.47;;;31.17;30.94
73870;BME280;64924;42.140;24.762;2023-06-24T05:35:22;99614.03;;;31.15;30.53
73870;BME280;64924;42.140;24.762;2023-06-24T05:37:48;99604.47;;;31.16;30.73
73870;BME280;64924;42.140;24.762;2023-06-24T05:40:13;99631.13;;;31.40;30.75
73870;BME280;64924;42.140;24.762;2023-06-24T05:42:39;99709.84;;;31.86;30.38
73870;BME280;64924;42.140;24.762;2023-06-24T05:45:05;99628.75;;;31.68;30.17
73870;BME280;64924;42.140;24.762;2023-06-24T05:47:32;99680.91;;;32.53;29.51
73870;BME280;64924;42.140;24.762;2023-06-24T05:49:57;99674.28;;;33.00;28.35
73870;BME280;64924;42.140;24.762;2023-06-24T05:52:23;99692.28;;;33.85;27.79
73870;BME280;64924;42.140;24.762;2023-06-24T05:54:49;99650.47;;;34.24;27.33
73870;BME280;64924;42.140;24.762;2023-06-24T05:57:14;99593.72;;;34.13;26.45
73870;BME280;64924;42.140;24.762;2023-06-24T05:59:40;99684.00;;;34.50;26.18
73870;BME280;64924;42.140;24.762;2023-06-24T06:02:06;99636.13;;;34.17;26.54
73870;BME280;64924;42.140;24.762;2023-06-24T06:04:32;99657.03;;;34.28;26.53
73870;BME280;64924;42.140;24.762;2023-06-24T06:06:57;99705.44;;;34.91;26.41
73870;BME280;64924;42.140;24.762;2023-06-24T06:09:23;99637.16;;;35.01;25.69
73870;BME280;64924;42.140;24.762;2023-06-24T06:11:48;99645.00;;;35.95;24.53
73870;BME280;64924;42.140;24.762;2023-06-24T06:14:14;99621.00;;;36.40;23.84
73870;BME280;64924;42.140;24.762;2023-06-24T06:16:39;99687.50;;;37.39;22.80
73870;BME280;64924;42.140;24.762;2023-06-24T06:19:05;99610.91;;;37.58;22.29
73870;BME280;64924;42.140;24.762;2023-06-24T06:21:31;99637.75;;;38.10;22.02
73870;BME280;64924;42.140;24.762;2023-06-24T06:23:57;99550.09;;;38.31;21.51
73870;BME280;64924;42.140;24.762;2023-06-24T06:26:23;99584.44;;;39.53;20.28
73870;BME280;64924;42.140;24.762;2023-06-24T06:28:48;99541.41;;;40.13;19.90
73870;BME280;64924;42.140;24.762;2023-06-24T06:31:15;99645.31;;;41.02;19.74
73870;BME280;64924;42.140;24.762;2023-06-24T06:33:41;99633.56;;;41.25;19.57
73870;BME280;64924;42.140;24.762;2023-06-24T06:36:07;99638.47;;;41.32;19.17
73870;BME280;64924;42.140;24.762;2023-06-24T06:38:33;99604.25;;;41.18;19.66
73870;BME280;64924;42.140;24.762;2023-06-24T06:40:59;99639.38;;;41.64;19.13
73870;BME280;64924;42.140;24.762;2023-06-24T06:43:25;99607.19;;;41.78;18.52
73870;BME280;64924;42.140;24.762;2023-06-24T06:45:50;99560.69;;;41.88;18.07
73870;BME280;64924;42.140;24.762;2023-06-24T06:48:16;99603.03;;;42.39;18.19
73870;BME280;64924;42.140;24.762;2023-06-24T06:50:41;99563.94;;;42.26;18.47
73870;BME280;64924;42.140;24.762;2023-06-24T06:53:07;99584.13;;;42.95;17.95
73870;BME280;64924;42.140;24.762;2023-06-24T06:55:33;99586.34;;;43.36;16.88
73870;BME280;64924;42.140;24.762;2023-06-24T06:57:58;99580.22;;;43.34;16.87
73870;BME280;64924;42.140;24.762;2023-06-24T07:00:24;99648.66;;;43.73;16.84
73870;BME280;64924;42.140;24.762;2023-06-24T07:02:49;99631.59;;;43.52;17.13
73870;BME280;64924;42.140;24.762;2023-06-24T07:05:15;99578.84;;;42.87;17.21
73870;BME280;64924;42.140;24.762;2023-06-24T07:07:40;99614.75;;;43.68;16.68
73870;BME280;64924;42.140;24.762;2023-06-24T07:10:07;99600.09;;;44.11;16.52
73870;BME280;64924;42.140;24.762;2023-06-24T07:12:32;99610.47;;;44.35;16.06
73870;BME280;64924;42.140;24.762;2023-06-24T07:14:58;99618.66;;;43.33;16.79
73870;BME280;64924;42.140;24.762;2023-06-24T07:17:23;99590.25;;;43.60;16.91
73870;BME280;64924;42.140;24.762;2023-06-24T07:19:49;99584.50;;;44.15;16.38
73870;BME280;64924;42.140;24.762;2023-06-24T07:22:15;99543.91;;;43.27;16.76
73870;BME280;64924;42.140;24.762;2023-06-24T07:24:42;99627.03;;;43.65;16.33
73870;BME280;64924;42.140;24.762;2023-06-24T07:27:07;99604.47;;;43.74;16.46
73870;BME280;64924;42.140;24.762;2023-06-24T07:29:36;99618.25;;;44.34;15.74
73870;BME280;64924;42.140;24.762;2023-06-24T07:32:03;99502.59;;;43.80;15.87
73870;BME280;64924;42.140;24.762;2023-06-24T07:34:29;99511.19;;;43.80;15.31
73870;BME280;64924;42.140;24.762;2023-06-24T07:36:56;99503.13;;;43.64;16.04
73870;BME280;64924;42.140;24.762;2023-06-24T07:39:22;99540.34;;;43.64;16.11
73870;BME280;64924;42.140;24.762;2023-06-24T07:41:48;99590.69;;;43.55;16.79
73870;BME280;64924;42.140;24.762;2023-06-24T07:44:13;99585.69;;;43.73;16.48
73870;BME280;64924;42.140;24.762;2023-06-24T07:46:39;99627.25;;;44.74;16.09
73870;BME280;64924;42.140;24.762;2023-06-24T07:49:04;99579.19;;;44.85;15.61
73870;BME280;64924;42.140;24.762;2023-06-24T07:51:30;99630.63;;;44.99;15.62
73870;BME280;64924;42.140;24.762;2023-06-24T07:53:56;99629.19;;;44.47;15.72
73870;BME280;64924;42.140;24.762;2023-06-24T07:56:23;99591.78;;;44.57;15.66
73870;BME280;64924;42.140;24.762;2023-06-24T07:58:49;99627.81;;;44.58;15.76
73870;BME280;64924;42.140;24.762;2023-06-24T08:01:14;99627.63;;;44.76;15.33
73870;BME280;64924;42.140;24.762;2023-06-24T08:04:00;99631.59;;;44.89;15.55
73870;BME280;64924;42.140;24.762;2023-06-24T08:07:02;99554.78;;;43.95;16.06
73870;BME280;64924;42.140;24.762;2023-06-24T08:09:47;99547.19;;;43.22;16.42
73870;BME280;64924;42.140;24.762;2023-06-24T08:12:13;99633.03;;;43.12;16.45
73870;BME280;64924;42.140;24.762;2023-06-24T08:14:41;99634.53;;;41.86;18.03
73870;BME280;64924;42.140;24.762;2023-06-24T08:17:15;99574.81;;;40.99;18.51
73870;BME280;64924;42.140;24.762;2023-06-24T08:19:45;99633.72;;;42.03;18.32
73870;BME280;64924;42.140;24.762;2023-06-24T08:22:16;99601.78;;;42.62;17.35
73870;BME280;64924;42.140;24.762;2023-06-24T08:24:55;99610.78;;;43.48;16.59
73870;BME280;64924;42.140;24.762;2023-06-24T08:27:30;99548.03;;;43.16;16.79
73870;BME280;64924;42.140;24.762;2023-06-24T08:29:56;99567.13;;;43.37;16.74
73870;BME280;64924;42.140;24.762;2023-06-24T08:32:25;99571.63;;;42.39;17.34
73870;BME280;64924;42.140;24.762;2023-06-24T08:34:52;99498.25;;;40.84;18.21
73870;BME280;64924;42.140;24.762;2023-06-24T08:37:18;99560.56;;;40.99;18.48
73870;BME280;64924;42.140;24.762;2023-06-24T08:39:47;99625.13;;;41.89;18.27
73870;BME280;64924;42.140;24.762;2023-06-24T08:42:19;99462.41;;;40.86;17.93
73870;BME280;64924;42.140;24.762;2023-06-24T08:45:06;99597.19;;;40.87;18.72
73870;BME280;64924;42.140;24.762;2023-06-24T08:47:35;99602.41;;;40.05;19.79
73870;BME280;64924;42.140;24.762;2023-06-24T08:50:05;99563.06;;;38.92;20.63
73870;BME280;64924;42.140;24.762;2023-06-24T08:52:50;99587.94;;;38.69;21.44
73870;BME280;64924;42.140;24.762;2023-06-24T08:55:19;99597.97;;;38.59;21.90
73870;BME280;64924;42.140;24.762;2023-06-24T08:58:09;99560.44;;;38.17;21.84
73870;BME280;64924;42.140;24.762;2023-06-24T09:00:35;99524.13;;;37.08;22.80
73870;BME280;64924;42.140;24.762;2023-06-24T09:03:05;99584.53;;;36.35;23.99
73870;BME280;64924;42.140;24.762;2023-06-24T09:05:31;99473.41;;;35.83;24.01
73870;BME280;64924;42.140;24.762;2023-06-24T09:07:59;99463.03;;;35.56;24.31
73870;BME280;64924;42.140;24.762;2023-06-24T09:10:36;99594.56;;;36.52;24.32
73870;BME280;64924;42.140;24.762;2023-06-24T09:13:08;99516.97;;;35.98;24.45
73870;BME280;64924;42.140;24.762;2023-06-24T09:15:36;99563.06;;;36.53;24.34
73870;BME280;64924;42.140;24.762;2023-06-24T09:18:07;99566.88;;;36.61;24.25
73870;BME280;64924;42.140;24.762;2023-06-24T09:20:35;99574.09;;;36.39;24.71
73870;BME280;64924;42.140;24.762;2023-06-24T09:23:20;99512.00;;;36.11;24.62
73870;BME280;64924;42.140;24.762;2023-06-24T09:26:01;99476.91;;;35.61;25.11
73870;BME280;64924;42.140;24.762;2023-06-24T09:28:27;99570.78;;;35.70;25.40
73870;BME280;64924;42.140;24.762;2023-06-24T09:31:08;99489.09;;;34.87;25.74
73870;BME280;64924;42.140;24.762;2023-06-24T09:33:34;99593.69;;;35.34;25.96
73870;BME280;64924;42.140;24.762;2023-06-24T09:36:04;99613.78;;;35.16;26.24
73870;BME280;64924;42.140;24.762;2023-06-24T09:38:38;99590.19;;;35.25;26.39
73870;BME280;64924;42.140;24.762;2023-06-24T09:41:10;99538.06;;;34.50;27.47
73870;BME280;64924;42.140;24.762;2023-06-24T09:43:37;99557.66;;;34.07;28.30
73870;BME280;64924;42.140;24.762;2023-06-24T09:46:23;99573.88;;;33.73;28.81
73870;BME280;64924;42.140;24.762;2023-06-24T09:49:31;99474.78;;;33.35;28.14
73870;BME280;64924;42.140;24.762;2023-06-24T09:52:02;99510.56;;;33.59;28.26
73870;BME280;64924;42.140;24.762;2023-06-24T09:54:30;99467.00;;;33.19;27.88
73870;BME280;64924;42.140;24.762;2023-06-24T09:57:18;99426.78;;;32.74;28.68
73870;BME280;64924;42.140;24.762;2023-06-24T09:59:46;99392.66;;;32.51;29.17
73870;BME280;64924;42.140;24.762;2023-06-24T10:02:15;99439.88;;;32.91;28.94
73870;BME280;64924;42.140;24.762;2023-06-24T10:04:48;99481.09;;;33.44;29.15
73870;BME280;64924;42.140;24.762;2023-06-24T10:07:18;99438.84;;;33.19;29.42
73870;BME280;64924;42.140;24.762;2023-06-24T10:10:06;99571.19;;;33.89;29.68
73870;BME280;64924;42.140;24.762;2023-06-24T10:12:35;99486.94;;;33.27;29.50
73870;BME280;64924;42.140;24.762;2023-06-24T10:15:01;99549.19;;;33.46;28.91
73870;BME280;64924;42.140;24.762;2023-06-24T10:17:30;99526.66;;;33.46;28.77
73870;BME280;64924;42.140;24.762;2023-06-24T10:19:56;99532.06;;;33.63;28.78
73870;BME280;64924;42.140;24.762;2023-06-24T10:22:25;99424.38;;;32.84;28.37
73870;BME280;64924;42.140;24.762;2023-06-24T10:24:58;99496.19;;;33.15;28.81
73870;BME280;64924;42.140;24.762;2023-06-24T10:27:27;99411.91;;;32.61;29.71
73870;BME280;64924;42.140;24.762;2023-06-24T10:30:02;99519.97;;;33.63;29.04
73870;BME280;64924;42.140;24.762;2023-06-24T10:32:39;99452.03;;;33.40;28.56
73870;BME280;64924;42.140;24.762;2023-06-24T10:35:30;99430.75;;;33.79;29.08
73870;BME280;64924;42.140;24.762;2023-06-24T10:38:00;99369.81;;;33.50;28.98
73870;BME280;64924;42.140;24.762;2023-06-24T10:40:43;99482.97;;;34.41;28.10
73870;BME280;64924;42.140;24.762;2023-06-24T10:43:28;99466.75;;;34.26;27.86
73870;BME280;64924;42.140;24.762;2023-06-24T10:45:58;99406.63;;;33.81;28.22
73870;BME280;64924;42.140;24.762;2023-06-24T10:48:29;99398.91;;;33.66;28.34
73870;BME280;64924;42.140;24.762;2023-06-24T10:51:17;99442.81;;;33.79;29.30
73870;BME280;64924;42.140;24.762;2023-06-24T10:53:43;99433.09;;;33.52;29.08
73870;BME280;64924;42.140;24.762;2023-06-24T10:56:32;99489.28;;;33.98;29.00
73870;BME280;64924;42.140;24.762;2023-06-24T10:58:58;99426.00;;;33.83;28.45
73870;BME280;64924;42.140;24.762;2023-06-24T11:01:51;99371.53;;;33.67;29.11
73870;BME280;64924;42.140;24.762;2023-06-24T11:04:19;99464.38;;;34.40;29.22
73870;BME280;64924;42.140;24.762;2023-06-24T11:07:00;99399.56;;;33.87;28.86
73870;BME280;64924;42.140;24.762;2023-06-24T11:09:27;99361.94;;;33.55;29.36
73870;BME280;64924;42.140;24.762;2023-06-24T11:11:54;99354.59;;;33.39;29.42
73870;BME280;64924;42.140;24.762;2023-06-24T11:14:29;99353.84;;;33.54;29.07
73870;BME280;64924;42.140;24.762;2023-06-24T11:16:55;99427.78;;;33.75;29.24
73870;BME280;64924;42.140;24.762;2023-06-24T11:19:24;99450.41;;;34.03;29.36
73870;BME280;64924;42.140;24.762;2023-06-24T11:22:12;99341.03;;;33.57;29.44
73870;BME280;64924;42.140;24.762;2023-06-24T11:24:44;99274.56;;;33.15;29.78
73870;BME280;64924;42.140;24.762;2023-06-24T11:27:12;99324.28;;;33.48;29.73
73870;BME280;64924;42.140;24.762;2023-06-24T11:30:02;99318.34;;;33.37;29.66
73870;BME280;64924;42.140;24.762;2023-06-24T11:32:45;99355.09;;;33.69;29.47
73870;BME280;64924;42.140;24.762;2023-06-24T11:35:12;99305.56;;;33.28;29.45
73870;BME280;64924;42.140;24.762;2023-06-24T11:37:45;99421.88;;;34.20;29.21
73870;BME280;64924;42.140;24.762;2023-06-24T11:40:11;99350.28;;;33.69;29.39
73870;BME280;64924;42.140;24.762;2023-06-24T11:42:48;99350.31;;;33.97;29.04
73870;BME280;64924;42.140;24.762;2023-06-24T11:45:53;99242.06;;;33.18;29.53
73870;BME280;64924;42.140;24.762;2023-06-24T11:48:22;99239.50;;;33.13;30.08
73870;BME280;64924;42.140;24.762;2023-06-24T11:51:14;99293.97;;;33.57;29.46
73870;BME280;64924;42.140;24.762;2023-06-24T11:53:45;99236.28;;;33.27;29.60
73870;BME280;64924;42.140;24.762;2023-06-24T11:56:16;99359.34;;;34.18;29.21
73870;BME280;64924;42.140;24.762;2023-06-24T11:58:48;99230.13;;;33.49;28.96
73870;BME280;64924;42.140;24.762;2023-06-24T12:01:16;99321.56;;;33.92;29.21
73870;BME280;64924;42.140;24.762;2023-06-24T12:03:45;99382.91;;;34.38;28.93
73870;BME280;64924;42.140;24.762;2023-06-24T12:06:11;99281.25;;;33.63;28.92
73870;BME280;64924;42.140;24.762;2023-06-24T12:08:37;99329.13;;;34.03;29.28
73870;BME280;64924;42.140;24.762;2023-06-24T12:11:27;99386.75;;;34.46;29.11
73870;BME280;64924;42.140;24.762;2023-06-24T12:13:59;99225.84;;;33.39;29.68
73870;BME280;64924;42.140;24.762;2023-06-24T12:16:25;99311.78;;;34.17;28.24
73870;BME280;64924;42.140;24.762;2023-06-24T12:18:55;99270.91;;;33.95;28.13
73870;BME280;64924;42.140;24.762;2023-06-24T12:21:40;99242.00;;;33.98;28.15
73870;BME280;64924;42.140;24.762;2023-06-24T12:24:28;99265.88;;;34.32;28.43
73870;BME280;64924;42.140;24.762;2023-06-24T12:26:55;99357.28;;;34.75;28.27
73870;BME280;64924;42.140;24.762;2023-06-24T12:29:24;99219.31;;;33.51;28.67
73870;BME280;64924;42.140;24.762;2023-06-24T12:31:58;99228.84;;;33.74;28.67
73870;BME280;64924;42.140;24.762;2023-06-24T12:34:29;99185.66;;;33.70;28.64
73870;BME280;64924;42.140;24.762;2023-06-24T12:36:56;99272.28;;;34.17;28.60
73870;BME280;64924;42.140;24.762;2023-06-24T12:39:37;99263.19;;;34.08;28.84
73870;BME280;64924;42.140;24.762;2023-06-24T12:42:02;99292.75;;;33.98;28.63
73870;BME280;64924;42.140;24.762;2023-06-24T12:44:31;99220.94;;;33.52;28.31
73870;BME280;64924;42.140;24.762;2023-06-24T12:46:59;99251.31;;;33.86;27.69
73870;BME280;64924;42.140;24.762;2023-06-24T12:49:24;99208.41;;;33.49;28.09
73870;BME280;64924;42.140;24.762;2023-06-24T12:52:07;99138.72;;;33.06;28.57
73870;BME280;64924;42.140;24.762;2023-06-24T12:54:54;99196.63;;;33.60;28.54
73870;BME280;64924;42.140;24.762;2023-06-24T12:57:49;99188.88;;;33.57;28.68
73870;BME280;64924;42.140;24.762;2023-06-24T13:00:36;99252.09;;;33.99;28.69
73870;BME280;64924;42.140;24.762;2023-06-24T13:03:07;99136.53;;;33.40;28.62
73870;BME280;64924;42.140;24.762;2023-06-24T13:05:39;99297.09;;;34.39;28.37
73870;BME280;64924;42.140;24.762;2023-06-24T13:08:06;99225.16;;;34.02;28.28
73870;BME280;64924;42.140;24.762;2023-06-24T13:10:32;99293.38;;;34.35;29.00